Nearby METAR Reports

 

KOXC - Oxford/Waterbury, Connecticut, USA
Distance from station: SE 8mi, 12km
Updated: Sun, 05-Apr-2020 3:51pm EDT
Mostly cloudy
Mostly cloudy
 Wind from SE
Wind: SE 12 mph , 19 km/h
Temperature: 57°F , 14°C
Dew Point: 46°F , 8°C
Humidity: 67%
Barometer: 29.98 inHg , 1015.2 hPa
Clouds: Mostly cloudy
Visibility: 10 miles , 16 km
Cloud details: Partly cloudy 2600 ft
Mostly cloudy 6000 ft
2020/04/05 19:51 KOXC 051951Z 14010KT 10SM SCT026 BKN060 14/08 A2998 RMK AO2 SLP166 T01390078
KDXR - Danbury, Connecticut, USA
Distance from station: SW 19mi, 30km
Updated: Sun, 05-Apr-2020 4:53pm EDT
Overcast
Overcast
 Wind from SSE
Wind: SSE 10 mph , 17 km/h
Temperature: 57°F , 14°C
Dew Point: 45°F , 7°C
Humidity: 63%
Barometer: 29.97 inHg , 1014.9 hPa
Clouds: Overcast
Visibility: 10 miles , 16 km
Cloud details: Overcast 5000 ft
2020/04/05 20:53 KDXR 052053Z 15009KT 10SM OVC050 14/07 A2997 RMK AO2 SLP150 T01440072 56012
 
KMMK - Meriden, Connecticut, USA
Distance from station: E 20mi, 33km
Updated: Sun, 05-Apr-2020 4:53pm EDT
Overcast
Overcast
 Wind from S
Wind: S 9 mph , 15 km/h
Temperature: 54°F , 12°C
Dew Point: 43°F , 6°C
Humidity: 67%
Barometer: 29.98 inHg , 1015.2 hPa
Clouds: Overcast
Visibility: 10 miles , 16 km
Cloud details: Overcast 6000 ft
2020/04/05 20:53 KMMK 052053Z AUTO 18008KT 10SM OVC060 12/06 A2998 RMK AO2 SLP154 T01220061 56012
KBDR - Bridgeport, Connecticut, USA
Distance from station: S 27mi, 44km
Updated: Sun, 05-Apr-2020 4:52pm EDT
Overcast
Overcast
 Wind from E
Wind: E 8 mph , 13 km/h
Temperature: 52°F , 11°C
Dew Point: 45°F , 7°C
Humidity: 77%
Barometer: 29.99 inHg , 1015.6 hPa
Clouds: Overcast
Visibility: 10 miles , 16 km
Cloud details: Overcast 7000 ft
2020/04/05 20:52 KBDR 052052Z 08007KT 10SM OVC070 11/07 A2999 RMK AO2 SLP157 T01060067 56015
 
KHVN - New Haven/Tweed, Connecticut, USA
Distance from station: SE 27mi, 44km
Updated: Sun, 05-Apr-2020 4:53pm EDT
Overcast
Overcast
 Wind from ESE
Wind: ESE 8 mph , 13 km/h
Temperature: 54°F , 12°C
Dew Point: 45°F , 7°C
Humidity: 72%
Barometer: 30.00 inHg , 1015.9 hPa
Clouds: Overcast
Visibility: 10 miles , 16 km
Cloud details: Overcast 7000 ft
2020/04/05 20:53 KHVN 052053Z 12007KT 10SM OVC070 12/07 A3000 RMK AO2 SLP158 T01170067 56013
KHFD - Hartford/Brainar, Connecticut, USA
Distance from station: ENE 32mi, 52km
Updated: Sun, 05-Apr-2020 4:53pm EDT
Overcast
Overcast
 Wind from S
Wind: S 9 mph , 15 km/h
Temperature: 57°F , 14°C
Dew Point: 43°F , 6°C
Humidity: 59%
Barometer: 29.97 inHg , 1014.9 hPa
Clouds: Overcast
Visibility: 10 miles , 16 km
Cloud details: Overcast 5500 ft
2020/04/05 20:53 KHFD 052053Z 18008KT 10SM OVC055 14/06 A2997 RMK AO2 SLP147 T01440061 56016
 
KPOU - Poughkeepsie, New York, USA
Distance from station: W 35mi, 56km
Updated: Sun, 05-Apr-2020 4:53pm EDT
Overcast
Overcast
 Wind from S
Wind: S 3 mph , 6 km/h
Temperature: 63°F , 17°C
Dew Point: 45°F , 7°C
Humidity: 52%
Barometer: 29.94 inHg , 1013.9 hPa
Clouds: Overcast
Visibility: 10 miles , 16 km
Cloud details: Overcast 5500 ft
2020/04/05 20:53 KPOU 052053Z 17003KT 10SM OVC055 17/07 A2994 RMK AO2 SLP134 T01670067 56009
KBDL - Windsor Locks, Connecticut, USA
Distance from station: NE 38mi, 62km
Updated: Sun, 05-Apr-2020 4:51pm EDT
Mostly cloudy
Mostly cloudy
 Wind from SSW
Wind: SSW 13 mph , 20 km/h
Temperature: 57°F , 14°C
Dew Point: 43°F , 6°C
Humidity: 59%
Barometer: 29.96 inHg , 1014.6 hPa
Clouds: Mostly cloudy
Visibility: 10 miles , 16 km
Cloud details: Mostly cloudy 4700 ft
Mostly cloudy 5500 ft
Mostly cloudy 7500 ft
2020/04/05 20:51 KBDL 052051Z 20011KT 10SM BKN047 BKN055 BKN075 14/06 A2996 RMK AO2 SLP145 T01440061 56016 $
 
KSNC - Chester, Connecticut, USA
Distance from station: ESE 39mi, 63km
Updated: Sun, 05-Apr-2020 4:55pm EDT
Partly cloudy
Partly cloudy
 Wind from S
Wind: S 10 mph , 17 km/h
Temperature: 52°F , 11°C
Dew Point: 41°F , 5°C
Humidity: 67%
Barometer: 30.00 inHg , 1015.9 hPa
Clouds: Partly cloudy
Visibility: 9 miles , 14 km
Cloud details: Partly cloudy 5500 ft
Partly cloudy 6500 ft
2020/04/05 20:55 KSNC 052055Z AUTO 17009KT 9SM SCT055 SCT065 11/05 A3000 RMK AO2
KHPN - White Plains, New York, USA
Distance from station: SW 42mi, 67km
Updated: Sun, 05-Apr-2020 3:56pm EDT
Mostly cloudy
Mostly cloudy
 Wind from SE
Wind: SE 8 mph , 13 km/h
Temperature: 57°F , 14°C
Dew Point: 45°F , 7°C
Humidity: 63%
Barometer: 29.98 inHg , 1015.2 hPa
Clouds: Mostly cloudy
Visibility: 10 miles , 16 km
Cloud details: Mostly cloudy 6000 ft
2020/04/05 19:56 KHPN 051956Z 14007KT 10SM BKN060 14/07 A2998 RMK AO2 SLP152 T01390072 $
 
KSWF - Newburgh/Stewart, New York, USA
Distance from station: W 45mi, 72km
Updated: Sun, 05-Apr-2020 4:45pm EDT
Mostly cloudy
Mostly cloudy
 Wind from varies
Wind: varies 5 mph , 7 km/h
Temperature: 61°F , 16°C
Dew Point: 46°F , 8°C
Humidity: 59%
Barometer: 29.95 inHg , 1014.2 hPa
Clouds: Mostly cloudy
Visibility: 10 miles , 16 km
Cloud details: Mostly cloudy 6000 ft
2020/04/05 20:45 KSWF 052045Z VRB04KT 10SM BKN060 16/08 A2995
KBAF - Westfield, Massachusetts, USA
Distance from station: NNE 50mi, 80km
Updated: Sun, 05-Apr-2020 4:53pm EDT
Overcast
Overcast
 Wind from S
Wind: S 9 mph , 15 km/h
Temperature: 57°F , 14°C
Dew Point: 43°F , 6°C
Humidity: 59%
Barometer: 29.95 inHg , 1014.2 hPa
Clouds: Overcast
Visibility: 10 miles , 16 km
Cloud details: Overcast 5000 ft
2020/04/05 20:53 KBAF 052053Z 17008KT 10SM OVC050 14/06 A2995 RMK AO2 SLP144 T01440061 56016